Time;durP1;ratioP1;P1;durP2;ratioP2;P2;SDS_P1;SDS_P2;PMS_P1;PMS_P2;Temp;Humidity;BMP_temperature;BMP_pressure;BME280_temperature;BME280_humidity;BME280_pressure;Samples;Min_cycle;Max_cycle;Signal;HPM_P1;HPM_P2
2023/11/14 00:00:26;;;;;;;22.08;4.28;;;15.20;99.90;;;;;;5048832;28;20179;-58
2023/11/14 00:02:52;;;;;;;18.67;3.50;;;15.20;99.90;;;;;;5047358;28;20068;-58
2023/11/14 00:05:17;;;;;;;19.80;3.10;;;15.20;99.90;;;;;;5047181;28;20056;-58
2023/11/14 00:07:43;;;;;;;28.08;3.65;;;15.20;99.90;;;;;;5047116;28;20025;-59
2023/11/14 00:10:09;;;;;;;26.58;3.90;;;15.20;99.90;;;;;;5048280;28;20103;-58
2023/11/14 00:12:36;;;;;;;13.68;2.65;;;15.20;99.90;;;;;;5046973;28;20026;-59
2023/11/14 00:15:02;;;;;;;14.98;3.45;;;15.20;99.90;;;;;;5046960;28;20029;-59
2023/11/14 00:17:28;;;;;;;21.25;3.40;;;15.20;99.90;;;;;;5045593;28;20029;-59
2023/11/14 00:19:53;;;;;;;17.67;2.80;;;15.20;99.90;;;;;;5046799;28;20040;-59
2023/11/14 00:22:19;;;;;;;9.73;2.90;;;15.20;99.90;;;;;;5046729;28;20053;-59
2023/11/14 00:24:45;;;;;;;11.20;2.42;;;15.20;99.90;;;;;;5047881;28;20044;-59
2023/11/14 00:27:12;;;;;;;11.75;2.47;;;15.20;99.90;;;;;;5030239;28;20021;-59
2023/11/14 00:29:38;;;;;;;15.75;2.75;;;15.20;99.90;;;;;;5048022;28;20025;-58
2023/11/14 00:32:04;;;;;;;10.25;2.25;;;15.20;99.90;;;;;;5046768;28;20037;-58
2023/11/14 00:34:30;;;;;;;14.25;3.17;;;15.20;99.90;;;;;;5046380;28;20147;-58
2023/11/14 00:36:56;;;;;;;23.80;2.80;;;15.20;99.90;;;;;;5030086;28;20021;-59
2023/11/14 00:39:22;;;;;;;11.75;2.70;;;15.20;99.90;;;;;;5047951;28;20371;-59
2023/11/14 00:41:53;;;;;;;14.90;2.55;;;15.10;99.90;;;;;;5046597;28;20033;-59
2023/11/14 00:44:46;;;;;;;8.52;2.30;;;15.20;99.90;;;;;;5047700;28;20044;-59
2023/11/14 00:47:12;;;;;;;11.38;2.25;;;15.20;99.90;;;;;;5047532;28;20029;-58
2023/11/14 00:49:37;;;;;;;11.30;2.22;;;15.20;99.90;;;;;;5046324;28;20030;-58
2023/11/14 00:52:03;;;;;;;14.02;2.28;;;15.20;99.90;;;;;;5047731;28;20060;-59
2023/11/14 00:54:31;;;;;;;13.10;2.15;;;15.20;99.90;;;;;;5046231;28;20026;-58
2023/11/14 00:56:57;;;;;;;11.45;2.25;;;15.10;99.90;;;;;;5047578;28;20025;-58
2023/11/14 00:59:23;;;;;;;14.60;2.40;;;15.10;99.90;;;;;;5047360;28;20041;-58
2023/11/14 01:01:48;;;;;;;9.68;2.13;;;15.10;99.90;;;;;;5047404;28;20092;-58
2023/11/14 01:04:17;;;;;;;9.05;2.20;;;15.20;99.90;;;;;;5046071;28;20029;-58
2023/11/14 01:06:43;;;;;;;8.43;1.92;;;15.20;99.90;;;;;;5047364;28;20033;-58
2023/11/14 01:09:09;;;;;;;12.40;1.83;;;15.10;99.90;;;;;;5046038;28;20030;-58
2023/11/14 01:11:35;;;;;;;7.50;1.67;;;15.10;99.90;;;;;;5047123;28;20048;-58
2023/11/14 01:14:01;;;;;;;4.50;1.73;;;15.10;99.90;;;;;;5047035;28;20022;-59
2023/11/14 01:16:26;;;;;;;5.05;1.70;;;15.10;99.90;;;;;;5045926;28;20036;-58
2023/11/14 01:18:54;;;;;;;19.98;2.63;;;15.10;99.90;;;;;;5047134;28;20512;-59
2023/11/14 01:21:19;;;;;;;12.63;2.15;;;15.10;99.90;;;;;;5046993;28;20109;-58
2023/11/14 01:23:45;;;;;;;9.07;2.50;;;15.10;99.90;;;;;;5045610;28;20064;-58
2023/11/14 01:26:11;;;;;;;6.43;2.00;;;15.10;99.90;;;;;;5045755;28;20031;-58
2023/11/14 01:28:36;;;;;;;15.55;2.00;;;15.10;99.90;;;;;;5028628;28;20097;-58
2023/11/14 01:31:02;;;;;;;8.80;1.80;;;15.10;99.90;;;;;;5045692;28;20098;-58
2023/11/14 01:33:27;;;;;;;7.57;2.08;;;15.10;99.90;;;;;;5045502;28;20030;-58
2023/11/14 01:35:53;;;;;;;8.20;1.90;;;15.10;99.90;;;;;;5045451;28;20034;-58
2023/11/14 01:38:19;;;;;;;3.85;1.20;;;15.10;99.90;;;;;;5045420;28;20025;-59
2023/11/14 01:40:51;;;;;;;8.10;1.55;;;15.10;99.90;;;;;;5045476;28;20052;-58
2023/11/14 01:43:17;;;;;;;6.10;1.48;;;15.10;99.90;;;;;;5045772;28;20026;-58
2023/11/14 01:45:43;;;;;;;4.38;1.77;;;15.10;99.90;;;;;;5046676;28;20034;-58
2023/11/14 01:48:08;;;;;;;5.72;1.45;;;15.00;99.90;;;;;;5045409;28;20090;-58
2023/11/14 01:50:34;;;;;;;5.28;1.48;;;15.00;99.90;;;;;;5045864;28;20092;-57
2023/11/14 01:53:00;;;;;;;5.28;1.27;;;15.10;99.90;;;;;;5045964;28;20069;-58
2023/11/14 01:55:25;;;;;;;7.13;1.33;;;15.10;99.90;;;;;;5045268;28;20036;-59
2023/11/14 01:57:53;;;;;;;4.65;1.05;;;15.10;99.90;;;;;;5045246;28;20049;-59
2023/11/14 02:00:18;;;;;;;4.68;1.25;;;15.10;99.90;;;;;;5045297;28;20033;-59
2023/11/14 02:02:44;;;;;;;6.63;1.50;;;15.10;99.90;;;;;;5045229;28;20461;-59
2023/11/14 02:05:09;;;;;;;2.75;1.02;;;15.00;99.90;;;;;;5045195;28;20398;-59
2023/11/14 02:07:37;;;;;;;5.45;1.33;;;15.10;99.90;;;;;;5045080;28;20033;-59
2023/11/14 02:10:03;;;;;;;6.55;1.10;;;15.00;99.90;;;;;;5045082;28;20040;-58
2023/11/14 02:12:28;;;;;;;7.72;1.48;;;15.00;99.90;;;;;;5044804;28;20017;-58
2023/11/14 02:14:54;;;;;;;4.32;1.33;;;15.00;99.90;;;;;;5044976;28;20082;-58
2023/11/14 02:17:20;;;;;;;5.20;0.82;;;15.00;99.90;;;;;;5045090;28;20347;-58
2023/11/14 02:19:45;;;;;;;3.50;1.08;;;15.00;99.90;;;;;;5044847;28;20391;-58
2023/11/14 02:22:11;;;;;;;6.40;1.02;;;15.00;99.90;;;;;;5046005;28;20061;-58
2023/11/14 02:24:58;;;;;;;5.55;1.02;;;15.00;99.90;;;;;;5044623;28;20041;-58
2023/11/14 02:27:24;;;;;;;2.67;0.88;;;15.00;99.90;;;;;;5030882;28;20070;-59
2023/11/14 02:29:51;;;;;;;2.40;0.90;;;15.00;99.90;;;;;;5044892;28;20029;-58
2023/11/14 02:32:19;;;;;;;1.08;0.50;;;15.10;99.90;;;;;;5044953;28;20107;-58
2023/11/14 02:34:45;;;;;;;5.72;1.27;;;15.00;99.90;;;;;;5044829;28;20033;-58
2023/11/14 02:37:11;;;;;;;4.88;1.60;;;15.00;99.90;;;;;;5045909;28;20025;-58
2023/11/14 02:39:36;;;;;;;5.50;1.33;;;15.00;99.90;;;;;;5044861;28;20548;-58
2023/11/14 02:42:02;;;;;;;4.28;1.30;;;15.00;99.90;;;;;;5048108;28;20051;-53
2023/11/14 02:44:28;;;;;;;3.33;1.02;;;15.00;99.90;;;;;;5048539;28;20029;-53
2023/11/14 02:46:54;;;;;;;2.67;1.20;;;15.00;99.90;;;;;;5048716;28;20160;-53
2023/11/14 02:49:20;;;;;;;3.90;1.20;;;15.00;99.90;;;;;;5048506;28;20034;-54
2023/11/14 02:51:45;;;;;;;1.90;0.68;;;15.00;99.90;;;;;;5049748;28;20474;-53
2023/11/14 02:54:11;;;;;;;4.28;1.00;;;15.00;99.90;;;;;;5048535;28;20041;-53
2023/11/14 02:56:37;;;;;;;2.28;0.80;;;15.00;99.90;;;;;;5049661;28;20101;-53
2023/11/14 02:59:02;;;;;;;2.22;0.68;;;15.00;99.90;;;;;;5048402;28;20091;-53
2023/11/14 03:01:28;;;;;;;3.78;1.10;;;15.00;99.90;;;;;;5048335;28;20044;-53
2023/11/14 03:03:53;;;;;;;2.90;0.77;;;15.00;99.90;;;;;;5048250;28;20029;-53
2023/11/14 03:06:19;;;;;;;1.42;0.70;;;15.10;99.90;;;;;;5048472;28;20120;-53
2023/11/14 03:08:45;;;;;;;2.95;0.70;;;15.00;99.90;;;;;;5048156;28;20029;-53
2023/11/14 03:11:10;;;;;;;1.30;0.60;;;15.10;99.90;;;;;;5048168;28;20025;-53
2023/11/14 03:13:36;;;;;;;2.75;0.77;;;15.00;99.90;;;;;;5048254;28;20084;-53
2023/11/14 03:16:02;;;;;;;3.40;0.77;;;15.00;99.90;;;;;;5048226;28;20089;-53
2023/11/14 03:18:28;;;;;;;1.13;0.52;;;15.00;99.90;;;;;;5048063;28;20052;-53
2023/11/14 03:20:53;;;;;;;1.15;0.70;;;15.00;99.90;;;;;;5048061;28;20089;-53
2023/11/14 03:23:19;;;;;;;3.30;1.02;;;15.00;99.90;;;;;;5031280;28;20029;-53
2023/11/14 03:25:44;;;;;;;1.70;0.68;;;15.00;99.90;;;;;;5047709;28;20038;-53
2023/11/14 03:28:10;;;;;;;1.05;0.40;;;14.90;99.90;;;;;;5047941;28;20045;-53
2023/11/14 03:30:36;;;;;;;2.60;0.68;;;14.90;99.90;;;;;;5047849;28;20034;-53
2023/11/14 03:33:01;;;;;;;1.38;0.55;;;14.90;99.90;;;;;;5047627;28;20021;-53
2023/11/14 03:35:27;;;;;;;1.00;0.40;;;15.00;99.90;;;;;;5047785;28;20115;-52
2023/11/14 03:37:52;;;;;;;1.25;0.40;;;14.90;99.90;;;;;;5047485;28;20029;-53
2023/11/14 03:40:18;;;;;;;2.08;0.40;;;14.90;99.90;;;;;;5047554;28;20033;-53
2023/11/14 03:42:44;;;;;;;1.30;0.40;;;14.90;99.90;;;;;;5048863;28;20057;-53
2023/11/14 03:45:09;;;;;;;1.85;0.20;;;14.90;99.90;;;;;;5048934;28;20511;-53
2023/11/14 03:47:35;;;;;;;0.75;0.40;;;14.80;99.90;;;;;;5048757;28;20033;-53
2023/11/14 03:50:03;;;;;;;0.68;0.38;;;14.80;99.90;;;;;;5047466;28;20034;-53
2023/11/14 03:52:29;;;;;;;1.10;0.40;;;14.80;99.90;;;;;;5047388;28;20025;-53
2023/11/14 03:54:54;;;;;;;0.85;0.30;;;14.80;99.90;;;;;;5030835;28;20386;-53
2023/11/14 03:57:21;;;;;;;0.98;0.40;;;14.80;99.90;;;;;;5048777;28;20082;-53
2023/11/14 03:59:47;;;;;;;0.82;0.30;;;14.80;99.90;;;;;;5048749;28;20037;-53
2023/11/14 04:02:12;;;;;;;4.03;0.40;;;14.80;99.90;;;;;;5048503;28;20036;-53
2023/11/14 04:04:38;;;;;;;3.83;0.40;;;14.80;99.90;;;;;;5048664;28;20044;-53
2023/11/14 04:07:04;;;;;;;2.88;0.43;;;14.70;99.90;;;;;;5048533;28;20025;-53
2023/11/14 04:09:29;;;;;;;0.32;0.30;;;14.70;99.90;;;;;;5048171;28;20193;-53
2023/11/14 04:11:55;;;;;;;2.60;0.30;;;14.70;99.90;;;;;;5047159;28;20014;-53
2023/11/14 04:14:20;;;;;;;0.45;0.25;;;14.70;99.90;;;;;;5048542;28;20079;-53
2023/11/14 04:16:46;;;;;;;1.40;0.40;;;14.70;99.90;;;;;;5048555;28;20025;-53
2023/11/14 04:19:11;;;;;;;2.67;0.30;;;14.70;99.90;;;;;;5048465;28;20078;-54
2023/11/14 04:21:37;;;;;;;0.38;0.22;;;14.60;99.90;;;;;;5047079;28;20089;-53
2023/11/14 04:24:03;;;;;;;1.05;0.38;;;14.60;99.90;;;;;;5046836;28;20057;-53
2023/11/14 04:26:30;;;;;;;0.70;0.38;;;14.60;99.90;;;;;;5047013;28;20065;-53
2023/11/14 04:28:56;;;;;;;3.15;0.35;;;14.60;99.90;;;;;;5048016;28;20113;-53
2023/11/14 04:31:22;;;;;;;0.63;0.30;;;14.60;99.90;;;;;;5048297;28;20017;-53
2023/11/14 04:33:48;;;;;;;1.35;0.43;;;14.60;99.90;;;;;;5046655;28;20029;-53
2023/11/14 04:36:13;;;;;;;1.42;0.35;;;14.50;99.90;;;;;;5046558;28;20052;-54
2023/11/14 04:38:39;;;;;;;0.28;0.20;;;14.50;99.90;;;;;;5046397;28;20065;-53
2023/11/14 04:41:05;;;;;;;0.65;0.30;;;14.50;99.90;;;;;;5046547;28;20030;-53
2023/11/14 04:43:30;;;;;;;0.57;0.30;;;14.50;99.90;;;;;;5046348;28;20083;-53
2023/11/14 04:45:56;;;;;;;1.27;0.55;;;14.40;99.90;;;;;;5047530;28;20047;-54
2023/11/14 04:48:22;;;;;;;0.45;0.20;;;14.40;99.90;;;;;;5046212;28;20052;-53
2023/11/14 04:50:47;;;;;;;0.90;0.40;;;14.40;99.90;;;;;;5046393;28;20025;-53
2023/11/14 04:53:13;;;;;;;0.55;0.30;;;14.30;99.90;;;;;;5046304;28;20091;-53
2023/11/14 04:55:39;;;;;;;0.45;0.30;;;14.30;99.90;;;;;;5047516;28;20029;-53
2023/11/14 04:58:04;;;;;;;0.38;0.28;;;14.30;99.90;;;;;;5046196;28;20039;-53
2023/11/14 05:00:30;;;;;;;0.68;0.45;;;14.30;99.90;;;;;;5046295;28;20033;-53
2023/11/14 05:02:56;;;;;;;0.60;0.40;;;14.20;99.90;;;;;;5046907;28;20496;-53
2023/11/14 05:05:21;;;;;;;1.52;0.50;;;14.20;99.90;;;;;;5046981;28;20034;-53
2023/11/14 05:07:47;;;;;;;1.52;0.50;;;14.20;99.90;;;;;;5047298;28;20021;-53
2023/11/14 05:10:13;;;;;;;0.75;0.20;;;14.20;99.90;;;;;;5045718;28;20033;-53
2023/11/14 05:12:39;;;;;;;1.02;0.55;;;14.10;99.90;;;;;;5045912;28;20025;-53
2023/11/14 05:15:07;;;;;;;1.40;0.45;;;14.10;99.90;;;;;;5047152;28;20061;-53
2023/11/14 05:17:32;;;;;;;3.35;0.75;;;14.00;99.90;;;;;;5045890;28;20041;-53
2023/11/14 05:19:59;;;;;;;3.92;0.40;;;14.00;99.90;;;;;;5045703;28;20041;-53
2023/11/14 05:22:25;;;;;;;1.33;0.60;;;14.00;99.90;;;;;;5046944;28;20113;-53
2023/11/14 05:24:50;;;;;;;4.25;0.70;;;14.00;99.90;;;;;;5045284;28;20041;-53
2023/11/14 05:27:16;;;;;;;1.40;0.47;;;14.00;99.90;;;;;;5046816;28;20029;-53
2023/11/14 05:29:41;;;;;;;2.88;0.60;;;14.00;99.90;;;;;;5045308;28;20460;-53
2023/11/14 05:32:09;;;;;;;1.75;0.50;;;14.00;99.90;;;;;;5045581;28;20025;-53
2023/11/14 05:34:35;;;;;;;1.98;0.32;;;14.00;99.90;;;;;;5045521;28;20036;-53
2023/11/14 05:37:01;;;;;;;1.33;0.60;;;14.00;99.90;;;;;;5045683;28;20018;-53
2023/11/14 05:39:26;;;;;;;2.35;0.50;;;13.90;99.90;;;;;;5045256;28;20044;-53
2023/11/14 05:41:52;;;;;;;1.58;0.75;;;13.90;99.90;;;;;;5046523;28;20045;-53
2023/11/14 05:44:17;;;;;;;3.05;0.70;;;13.90;99.90;;;;;;5045152;28;20033;-53
2023/11/14 05:46:44;;;;;;;1.33;0.47;;;13.90;99.90;;;;;;5046501;28;20060;-53
2023/11/14 05:49:10;;;;;;;3.83;0.60;;;13.90;99.90;;;;;;5045056;28;20040;-53
2023/11/14 05:51:36;;;;;;;1.40;0.50;;;13.90;99.90;;;;;;5045252;28;20027;-53
2023/11/14 05:54:01;;;;;;;2.25;0.50;;;13.90;99.90;;;;;;5028712;28;20037;-53
2023/11/14 05:56:27;;;;;;;1.27;0.50;;;13.90;99.90;;;;;;5046448;28;20017;-53
2023/11/14 05:58:52;;;;;;;2.00;0.50;;;13.90;99.90;;;;;;5046387;28;20092;-53
2023/11/14 06:01:18;;;;;;;2.35;0.70;;;13.90;99.90;;;;;;5045134;28;20536;-53
2023/11/14 06:03:44;;;;;;;1.17;0.50;;;13.90;99.90;;;;;;5044904;28;20473;-53
2023/11/14 06:06:10;;;;;;;2.55;0.77;;;13.80;99.90;;;;;;5046416;28;20025;-53
2023/11/14 06:08:35;;;;;;;1.60;0.40;;;13.80;99.90;;;;;;5046281;28;20034;-53
2023/11/14 06:11:01;;;;;;;3.05;0.85;;;13.80;99.90;;;;;;5045069;28;20081;-53
2023/11/14 06:13:26;;;;;;;1.73;0.63;;;13.80;99.90;;;;;;5044689;28;20030;-53
2023/11/14 06:15:52;;;;;;;4.30;0.80;;;13.80;99.90;;;;;;5045087;28;20033;-53
2023/11/14 06:18:17;;;;;;;4.15;0.50;;;13.70;99.90;;;;;;5046090;28;20032;-53
2023/11/14 06:20:43;;;;;;;2.03;0.73;;;13.70;99.90;;;;;;5044974;28;20033;-53
2023/11/14 06:23:08;;;;;;;3.92;1.02;;;13.80;99.90;;;;;;5046156;28;20033;-53
2023/11/14 06:25:34;;;;;;;3.10;0.73;;;13.80;99.90;;;;;;5045710;28;20101;-53
2023/11/14 06:27:59;;;;;;;3.67;0.80;;;13.70;99.90;;;;;;5045843;28;20032;-53
2023/11/14 06:30:25;;;;;;;4.40;1.10;;;13.70;99.90;;;;;;5026132;28;20038;-53
2023/11/14 06:32:50;;;;;;;3.00;0.82;;;13.70;99.90;;;;;;5026195;28;20078;-53
2023/11/14 06:35:16;;;;;;;1.98;0.88;;;13.70;99.90;;;;;;5026239;28;20030;-53
2023/11/14 06:37:44;;;;;;;3.53;0.90;;;13.70;99.90;;;;;;5058083;28;20040;-53
2023/11/14 06:40:10;;;;;;;2.58;0.93;;;13.70;99.90;;;;;;5026136;28;20037;-53
2023/11/14 06:42:36;;;;;;;2.67;0.98;;;13.70;99.90;;;;;;5026148;28;20172;-53
2023/11/14 06:45:01;;;;;;;5.32;0.90;;;13.60;99.90;;;;;;5058106;28;20494;-53
2023/11/14 06:47:28;;;;;;;2.00;1.00;;;13.60;99.90;;;;;;5026155;28;20029;-53
2023/11/14 06:49:53;;;;;;;2.88;1.10;;;13.60;99.90;;;;;;5025790;28;20034;-53
2023/11/14 06:52:19;;;;;;;1.92;0.93;;;13.60;99.90;;;;;;5058027;28;20031;-53
2023/11/14 06:54:44;;;;;;;7.25;1.05;;;13.60;99.90;;;;;;5057940;28;20057;-53
2023/11/14 06:57:10;;;;;;;1.33;0.60;;;13.60;99.90;;;;;;5026038;28;20026;-54
2023/11/14 06:59:35;;;;;;;2.35;0.98;;;13.60;99.90;;;;;;5025680;28;20038;-53
2023/11/14 07:02:05;;;;;;;4.53;1.10;;;13.60;99.90;;;;;;5025187;28;20481;-53
2023/11/14 07:04:31;;;;;;;2.53;0.82;;;13.60;99.90;;;;;;5057378;28;20044;-53
2023/11/14 07:07:00;;;;;;;2.28;0.75;;;13.60;99.90;;;;;;5040828;28;20068;-53
2023/11/14 07:09:26;;;;;;;3.33;1.08;;;13.60;99.90;;;;;;5025632;28;20462;-53
2023/11/14 07:11:54;;;;;;;4.88;0.85;;;13.60;99.90;;;;;;5025396;28;20022;-52
2023/11/14 07:14:21;;;;;;;6.60;1.02;;;13.60;99.90;;;;;;5040636;28;20026;-53
2023/11/14 07:16:47;;;;;;;3.20;0.90;;;13.50;99.90;;;;;;5057223;28;20030;-53
2023/11/14 07:19:12;;;;;;;6.13;1.40;;;13.50;99.90;;;;;;5057488;28;20048;-53
2023/11/14 07:21:38;;;;;;;3.00;1.08;;;13.60;99.90;;;;;;5057591;28;20085;-53
2023/11/14 07:24:04;;;;;;;5.47;0.90;;;13.50;99.90;;;;;;5024257;28;20042;-51
2023/11/14 07:26:30;;;;;;;4.90;1.17;;;13.50;99.90;;;;;;5041305;28;20057;-53
2023/11/14 07:28:58;;;;;;;5.88;0.98;;;13.50;99.90;;;;;;5044185;28;20056;-53
2023/11/14 07:31:24;;;;;;;6.30;1.23;;;13.50;99.90;;;;;;5073683;28;20029;-53
2023/11/14 07:33:50;;;;;;;5.80;1.58;;;13.50;99.90;;;;;;5047619;28;20037;-53
2023/11/14 07:36:16;;;;;;;3.65;1.35;;;13.50;99.90;;;;;;5047679;28;20045;-53
2023/11/14 07:38:43;;;;;;;6.28;1.30;;;13.50;99.90;;;;;;5047615;28;20026;-53
2023/11/14 07:41:10;;;;;;;5.07;1.23;;;13.50;99.90;;;;;;5048765;28;20033;-53
2023/11/14 07:43:37;;;;;;;7.65;1.33;;;13.50;99.90;;;;;;5046966;28;20025;-53
2023/11/14 07:46:03;;;;;;;13.50;2.40;;;13.50;99.90;;;;;;5030546;28;20037;-53
2023/11/14 07:48:30;;;;;;;13.02;2.33;;;13.50;99.90;;;;;;5047177;28;20104;-53
2023/11/14 07:50:58;;;;;;;6.22;1.92;;;13.50;99.90;;;;;;5030658;28;20389;-53
2023/11/14 07:53:24;;;;;;;16.13;2.67;;;13.50;99.90;;;;;;5047548;28;20026;-53
2023/11/14 07:55:49;;;;;;;27.17;3.63;;;13.50;99.90;;;;;;5044940;28;20037;-53
2023/11/14 07:58:15;;;;;;;37.63;4.35;;;13.50;99.90;;;;;;5048655;28;20474;-53
2023/11/14 08:00:41;;;;;;;23.05;3.53;;;13.50;99.90;;;;;;5046392;28;20034;-53
2023/11/14 08:03:06;;;;;;;26.92;2.92;;;13.50;99.90;;;;;;5045541;28;20037;-54
2023/11/14 08:05:33;;;;;;;20.35;2.90;;;13.50;99.90;;;;;;5047005;28;20033;-53
2023/11/14 08:07:59;;;;;;;21.13;2.53;;;13.50;99.90;;;;;;5032629;28;20049;-53
2023/11/14 08:10:24;;;;;;;14.77;2.60;;;13.50;99.90;;;;;;5032175;28;20037;-53
2023/11/14 08:12:50;;;;;;;24.02;3.08;;;13.50;99.90;;;;;;5046857;28;20512;-53
2023/11/14 08:15:16;;;;;;;25.30;3.80;;;13.50;99.90;;;;;;5031536;28;20042;-53
2023/11/14 08:17:42;;;;;;;238.57;23.25;;;13.50;99.90;;;;;;5047591;28;20049;-53
2023/11/14 08:20:10;;;;;;;83.50;9.20;;;13.50;99.90;;;;;;5043552;28;20026;-53
2023/11/14 08:22:35;;;;;;;50.03;6.68;;;13.50;99.90;;;;;;5043945;28;20017;-53
2023/11/14 08:25:01;;;;;;;82.82;7.60;;;13.50;99.90;;;;;;5025377;28;20029;-53
2023/11/14 08:27:30;;;;;;;57.08;7.35;;;13.50;99.90;;;;;;5042323;28;20024;-53
2023/11/14 08:29:57;;;;;;;53.28;7.07;;;13.50;99.90;;;;;;5046825;28;20040;-53
2023/11/14 08:32:23;;;;;;;29.40;3.95;;;13.50;99.90;;;;;;5031653;28;20111;-53
2023/11/14 08:34:49;;;;;;;53.10;6.30;;;13.60;99.90;;;;;;5041855;28;20025;-53
2023/11/14 08:37:14;;;;;;;41.30;5.28;;;13.50;99.90;;;;;;5037835;28;20521;-53
2023/11/14 08:39:40;;;;;;;33.25;5.35;;;13.50;99.90;;;;;;5046081;28;20060;-53
2023/11/14 08:42:11;;;;;;;49.70;6.43;;;13.50;99.90;;;;;;5041070;28;20493;-53
2023/11/14 08:44:38;;;;;;;73.50;9.20;;;13.50;99.90;;;;;;5037475;28;20093;-53
2023/11/14 08:47:04;;;;;;;52.38;6.60;;;13.50;99.90;;;;;;5044864;28;20045;-53
2023/11/14 08:49:29;;;;;;;46.97;5.75;;;13.50;99.90;;;;;;5046286;28;20499;-53
2023/11/14 08:51:57;;;;;;;56.63;6.60;;;13.60;99.90;;;;;;5039416;28;20022;-53
2023/11/14 08:54:23;;;;;;;65.20;6.95;;;13.50;99.90;;;;;;5051506;28;20046;-53
2023/11/14 08:56:48;;;;;;;57.65;7.45;;;13.50;99.90;;;;;;5033937;28;20405;-53
2023/11/14 08:59:17;;;;;;;71.20;8.82;;;13.50;99.90;;;;;;5041325;28;20370;-53
2023/11/14 09:01:44;;;;;;;80.20;9.98;;;13.50;99.90;;;;;;5047228;28;20025;-53
2023/11/14 09:04:10;;;;;;;58.00;7.55;;;13.50;99.90;;;;;;5026711;28;20032;-53
2023/11/14 09:06:37;;;;;;;62.45;8.02;;;13.50;99.90;;;;;;5041053;28;20041;-53
2023/11/14 09:09:02;;;;;;;64.78;7.93;;;13.60;99.90;;;;;;5048168;28;20081;-53
2023/11/14 09:11:29;;;;;;;63.78;7.10;;;13.50;99.90;;;;;;5048234;28;20060;-53
2023/11/14 09:13:56;;;;;;;46.13;6.20;;;13.50;99.90;;;;;;5047828;28;20022;-53
2023/11/14 09:16:25;;;;;;;52.78;7.40;;;13.50;99.90;;;;;;5046913;28;20030;-53
2023/11/14 09:18:51;;;;;;;55.42;6.95;;;13.50;99.90;;;;;;5035549;28;20041;-53
2023/11/14 09:21:17;;;;;;;57.30;6.40;;;13.50;99.90;;;;;;5045351;28;20025;-53
2023/11/14 09:23:43;;;;;;;46.03;6.55;;;13.50;99.90;;;;;;5045090;28;20836;-54
2023/11/14 09:26:09;;;;;;;47.53;5.65;;;13.50;99.90;;;;;;5028712;28;20171;-53
2023/11/14 09:28:36;;;;;;;48.30;6.25;;;13.50;99.90;;;;;;5045643;28;20025;-53
2023/11/14 09:31:04;;;;;;;47.58;5.53;;;13.50;99.90;;;;;;5054790;28;20104;-53
2023/11/14 09:33:30;;;;;;;42.22;6.47;;;13.50;99.90;;;;;;5055431;28;20024;-53
2023/11/14 09:35:55;;;;;;;42.63;5.95;;;13.40;99.90;;;;;;5053994;28;20048;-53
2023/11/14 09:38:22;;;;;;;47.72;6.38;;;13.50;99.90;;;;;;5060079;28;20029;-53
2023/11/14 09:40:48;;;;;;;50.15;5.82;;;13.50;99.90;;;;;;5047876;28;20060;-53
2023/11/14 09:43:14;;;;;;;41.20;6.10;;;13.50;99.90;;;;;;5056571;28;20036;-53
2023/11/14 09:45:43;;;;;;;41.83;5.03;;;13.40;99.90;;;;;;5057378;28;20528;-53
2023/11/14 09:48:10;;;;;;;44.53;5.55;;;13.50;99.90;;;;;;5030139;28;20053;-53
2023/11/14 09:50:39;;;;;;;44.33;5.38;;;13.50;99.90;;;;;;5037347;28;20033;-53
2023/11/14 09:53:05;;;;;;;37.08;4.82;;;13.50;99.90;;;;;;5047939;28;20014;-53
2023/11/14 09:55:30;;;;;;;40.42;5.75;;;13.50;99.90;;;;;;5044452;28;20394;-53
2023/11/14 09:57:56;;;;;;;28.67;4.55;;;13.50;99.90;;;;;;5041487;28;20552;-53
2023/11/14 10:00:22;;;;;;;33.47;4.95;;;13.50;99.90;;;;;;5045019;28;20039;-53
2023/11/14 10:02:47;;;;;;;31.15;4.85;;;13.50;99.90;;;;;;5043717;28;20033;-53
2023/11/14 10:05:13;;;;;;;23.55;4.20;;;13.50;99.90;;;;;;5037843;28;20414;-53
2023/11/14 10:07:41;;;;;;;30.73;4.70;;;13.50;99.90;;;;;;5044289;28;20072;-53
2023/11/14 10:10:07;;;;;;;27.65;3.97;;;13.50;99.90;;;;;;5062969;28;20089;-53
2023/11/14 10:12:34;;;;;;;34.00;3.78;;;13.40;99.90;;;;;;5053599;28;20041;-53
2023/11/14 10:15:00;;;;;;;27.42;4.13;;;13.50;99.90;;;;;;5043786;28;20026;-53
2023/11/14 10:17:29;;;;;;;40.05;5.15;;;13.40;99.90;;;;;;5062258;28;20129;-53
2023/11/14 10:19:56;;;;;;;36.65;4.80;;;13.50;99.90;;;;;;5060064;28;20025;-53
2023/11/14 10:22:21;;;;;;;36.40;4.25;;;13.40;99.90;;;;;;5054237;28;20036;-53
2023/11/14 10:24:50;;;;;;;26.63;4.32;;;13.40;99.90;;;;;;5050267;28;20049;-53
2023/11/14 10:27:27;;;;;;;29.50;4.70;;;13.50;99.90;;;;;;5059029;28;20072;-53
2023/11/14 10:29:53;;;;;;;20.58;3.70;;;13.50;99.90;;;;;;5053022;28;20544;-53
2023/11/14 10:32:21;;;;;;;32.65;4.50;;;13.40;99.90;;;;;;5058229;28;20104;-53
2023/11/14 10:34:47;;;;;;;27.55;4.35;;;13.40;99.90;;;;;;5055770;28;20049;-53
2023/11/14 10:37:12;;;;;;;29.70;4.03;;;13.50;99.90;;;;;;5048965;28;20067;-53
2023/11/14 10:39:51;;;;;;;29.35;4.10;;;13.50;99.90;;;;;;5051897;28;20059;-53
2023/11/14 10:42:17;;;;;;;39.35;4.93;;;13.50;99.90;;;;;;5050429;28;20022;-53
2023/11/14 10:44:57;;;;;;;43.55;4.82;;;13.50;99.90;;;;;;5043860;28;20067;-53
2023/11/14 10:47:38;;;;;;;25.02;3.50;;;13.50;99.90;;;;;;5056069;28;20029;-53
2023/11/14 10:50:05;;;;;;;31.27;3.72;;;13.40;99.90;;;;;;5061939;28;20028;-53
2023/11/14 10:52:35;;;;;;;31.92;4.20;;;13.40;99.90;;;;;;5042089;28;20025;-53
2023/11/14 10:55:01;;;;;;;36.03;4.00;;;13.40;99.90;;;;;;5055029;28;20025;-53
2023/11/14 10:57:28;;;;;;;15.77;3.00;;;13.40;99.90;;;;;;5040898;28;20030;-54
2023/11/14 10:59:55;;;;;;;37.88;4.95;;;13.40;99.90;;;;;;5036579;28;20029;-53
2023/11/14 11:02:21;;;;;;;55.88;5.93;;;13.50;99.90;;;;;;5038269;28;20101;-53
2023/11/14 11:04:46;;;;;;;45.45;6.10;;;13.40;99.90;;;;;;5045971;28;20033;-53
2023/11/14 11:07:12;;;;;;;36.50;4.95;;;13.50;99.90;;;;;;5052440;28;20037;-53
2023/11/14 11:09:37;;;;;;;35.50;4.78;;;13.50;99.90;;;;;;5045698;28;20041;-53
2023/11/14 11:12:03;;;;;;;40.83;5.32;;;13.50;99.90;;;;;;5042973;28;20045;-53
2023/11/14 11:14:28;;;;;;;31.08;4.78;;;13.50;99.90;;;;;;5026789;28;20026;-53
2023/11/14 11:16:54;;;;;;;41.00;5.50;;;13.50;99.90;;;;;;5023414;28;20026;-53
2023/11/14 11:19:28;;;;;;;31.48;4.22;;;13.50;99.90;;;;;;5059032;28;20029;-53
2023/11/14 11:22:09;;;;;;;73.40;8.07;;;13.50;99.90;;;;;;5038982;28;20037;-53
2023/11/14 11:24:36;;;;;;;72.85;8.05;;;13.50;99.90;;;;;;5039287;28;20042;-53
2023/11/14 11:27:17;;;;;;;55.72;7.20;;;13.50;99.90;;;;;;5055252;28;20029;-53
2023/11/14 11:29:59;;;;;;;58.13;8.43;;;13.50;99.90;;;;;;5061141;28;20038;-53
2023/11/14 11:32:26;;;;;;;126.47;13.07;;;13.50;99.90;;;;;;5043649;28;20028;-53
2023/11/14 11:35:20;;;;;;;94.50;12.95;;;13.50;99.90;;;;;;5054150;28;20032;-53
2023/11/14 11:37:49;;;;;;;85.78;9.73;;;13.50;99.90;;;;;;5059579;28;20021;-53
2023/11/14 11:40:15;;;;;;;141.50;15.27;;;13.50;99.90;;;;;;5061688;28;20465;-53
2023/11/14 11:42:42;;;;;;;169.40;20.35;;;13.50;99.90;;;;;;5039943;28;20021;-53
2023/11/14 11:45:41;;;;;;;129.95;12.23;;;13.50;99.90;;;;;;5046893;28;20029;-53
2023/11/14 11:48:30;;;;;;;108.88;12.38;;;13.50;99.90;;;;;;5049671;28;20034;-54
2023/11/14 11:50:58;;;;;;;168.05;17.55;;;13.50;99.90;;;;;;5039190;28;20052;-51
2023/11/14 11:53:44;;;;;;;120.35;14.10;;;13.50;99.90;;;;;;5027401;28;20097;-53
2023/11/14 11:56:13;;;;;;;112.68;13.32;;;13.50;99.90;;;;;;5048006;28;20059;-53
2023/11/14 11:58:46;;;;;;;110.90;11.32;;;13.50;99.90;;;;;;5041156;28;20072;-53
2023/11/14 12:01:11;;;;;;;88.40;11.07;;;13.60;99.90;;;;;;5041285;28;20037;-53
2023/11/14 12:03:37;;;;;;;80.13;11.85;;;13.60;99.90;;;;;;5049591;28;20034;-53
2023/11/14 12:06:04;;;;;;;106.53;12.95;;;13.50;99.90;;;;;;5041639;28;20164;-52
2023/11/14 12:08:29;;;;;;;135.65;16.92;;;13.50;99.90;;;;;;5046032;28;20029;-53
2023/11/14 12:10:56;;;;;;;144.95;15.60;;;13.60;99.90;;;;;;5033702;28;22093;-53
2023/11/14 12:13:21;;;;;;;150.40;16.80;;;13.50;99.90;;;;;;5050289;28;20081;-53
2023/11/14 12:15:47;;;;;;;125.13;14.43;;;13.60;99.90;;;;;;5035839;28;20371;-53
2023/11/14 12:18:12;;;;;;;150.88;15.98;;;13.50;99.90;;;;;;5037984;28;20033;-53
2023/11/14 12:20:38;;;;;;;123.45;15.52;;;13.50;99.90;;;;;;5027589;28;20117;-53
2023/11/14 12:23:04;;;;;;;107.55;13.82;;;13.50;99.90;;;;;;5043696;28;20034;-53
2023/11/14 12:25:29;;;;;;;146.18;16.83;;;13.50;99.90;;;;;;5055298;28;20041;-53
2023/11/14 12:27:56;;;;;;;91.40;13.32;;;13.60;99.90;;;;;;5046367;28;20044;-53
2023/11/14 12:30:22;;;;;;;113.80;14.15;;;13.50;99.90;;;;;;5051152;28;20029;-53
2023/11/14 12:33:02;;;;;;;135.95;15.00;;;13.50;99.90;;;;;;5048077;28;20090;-53
2023/11/14 12:35:27;;;;;;;113.43;15.60;;;13.60;99.90;;;;;;5045865;28;20041;-51
2023/11/14 12:38:00;;;;;;;118.88;14.38;;;13.60;99.90;;;;;;5044711;28;20033;-53